sensor_id;sensor_type;location;lat;lon;timestamp;P1;durP1;ratioP1;P2;durP2;ratioP2
55224;SDS011;41091;49.400;8.684;2023-02-08T00:00:21;10.85;;;6.13;;
55224;SDS011;41091;49.400;8.684;2023-02-08T00:02:47;6.88;;;5.43;;
55224;SDS011;41091;49.400;8.684;2023-02-08T00:05:12;6.88;;;5.47;;
55224;SDS011;41091;49.400;8.684;2023-02-08T00:07:40;8.90;;;5.80;;
55224;SDS011;41091;49.400;8.684;2023-02-08T00:10:05;7.93;;;5.20;;
55224;SDS011;41091;49.400;8.684;2023-02-08T00:12:36;11.60;;;5.65;;
55224;SDS011;41091;49.400;8.684;2023-02-08T00:15:02;8.55;;;4.90;;
55224;SDS011;41091;49.400;8.684;2023-02-08T00:17:28;9.15;;;6.00;;
55224;SDS011;41091;49.400;8.684;2023-02-08T00:20:03;8.93;;;5.45;;
55224;SDS011;41091;49.400;8.684;2023-02-08T00:22:30;10.55;;;5.47;;
55224;SDS011;41091;49.400;8.684;2023-02-08T00:24:55;9.77;;;5.20;;
55224;SDS011;41091;49.400;8.684;2023-02-08T00:27:20;6.18;;;4.78;;
55224;SDS011;41091;49.400;8.684;2023-02-08T00:29:46;10.45;;;6.03;;
55224;SDS011;41091;49.400;8.684;2023-02-08T00:32:12;8.25;;;5.45;;
55224;SDS011;41091;49.400;8.684;2023-02-08T00:34:37;6.07;;;5.30;;
55224;SDS011;41091;49.400;8.684;2023-02-08T00:37:05;10.38;;;5.63;;
55224;SDS011;41091;49.400;8.684;2023-02-08T00:39:33;10.43;;;5.72;;
55224;SDS011;41091;49.400;8.684;2023-02-08T00:41:58;7.75;;;5.13;;
55224;SDS011;41091;49.400;8.684;2023-02-08T00:44:28;10.15;;;5.60;;
55224;SDS011;41091;49.400;8.684;2023-02-08T00:46:54;6.55;;;4.43;;
55224;SDS011;41091;49.400;8.684;2023-02-08T00:49:21;8.07;;;5.68;;
55224;SDS011;41091;49.400;8.684;2023-02-08T00:51:47;7.70;;;5.55;;
55224;SDS011;41091;49.400;8.684;2023-02-08T00:54:13;9.40;;;5.35;;
55224;SDS011;41091;49.400;8.684;2023-02-08T00:56:39;11.68;;;6.03;;
55224;SDS011;41091;49.400;8.684;2023-02-08T00:59:05;5.85;;;4.95;;
55224;SDS011;41091;49.400;8.684;2023-02-08T01:01:35;9.98;;;5.70;;
55224;SDS011;41091;49.400;8.684;2023-02-08T01:04:01;8.20;;;5.65;;
55224;SDS011;41091;49.400;8.684;2023-02-08T01:06:29;10.68;;;4.80;;
55224;SDS011;41091;49.400;8.684;2023-02-08T01:08:57;8.88;;;5.60;;
55224;SDS011;41091;49.400;8.684;2023-02-08T01:11:24;12.55;;;6.25;;
55224;SDS011;41091;49.400;8.684;2023-02-08T01:13:53;9.05;;;5.60;;
55224;SDS011;41091;49.400;8.684;2023-02-08T01:16:22;8.23;;;6.18;;
55224;SDS011;41091;49.400;8.684;2023-02-08T01:18:52;8.15;;;6.03;;
55224;SDS011;41091;49.400;8.684;2023-02-08T01:21:20;9.73;;;5.63;;
55224;SDS011;41091;49.400;8.684;2023-02-08T01:23:47;9.15;;;5.68;;
55224;SDS011;41091;49.400;8.684;2023-02-08T01:26:13;7.45;;;5.47;;
55224;SDS011;41091;49.400;8.684;2023-02-08T01:28:39;8.73;;;6.10;;
55224;SDS011;41091;49.400;8.684;2023-02-08T01:31:06;8.10;;;5.90;;
55224;SDS011;41091;49.400;8.684;2023-02-08T01:33:32;9.40;;;6.20;;
55224;SDS011;41091;49.400;8.684;2023-02-08T01:35:58;12.35;;;6.38;;
55224;SDS011;41091;49.400;8.684;2023-02-08T01:38:26;12.10;;;6.28;;
55224;SDS011;41091;49.400;8.684;2023-02-08T01:40:53;10.80;;;6.35;;
55224;SDS011;41091;49.400;8.684;2023-02-08T01:43:20;10.75;;;5.60;;
55224;SDS011;41091;49.400;8.684;2023-02-08T01:45:49;6.40;;;5.18;;
55224;SDS011;41091;49.400;8.684;2023-02-08T01:48:16;14.13;;;6.07;;
55224;SDS011;41091;49.400;8.684;2023-02-08T01:50:49;8.57;;;5.65;;
55224;SDS011;41091;49.400;8.684;2023-02-08T01:53:24;10.77;;;6.28;;
55224;SDS011;41091;49.400;8.684;2023-02-08T01:55:51;10.30;;;5.85;;
55224;SDS011;41091;49.400;8.684;2023-02-08T01:58:20;11.60;;;6.80;;
55224;SDS011;41091;49.400;8.684;2023-02-08T02:00:48;8.32;;;5.97;;
55224;SDS011;41091;49.400;8.684;2023-02-08T02:03:14;9.57;;;6.32;;
55224;SDS011;41091;49.400;8.684;2023-02-08T02:05:44;9.02;;;5.93;;
55224;SDS011;41091;49.400;8.684;2023-02-08T02:08:15;10.55;;;5.72;;
55224;SDS011;41091;49.400;8.684;2023-02-08T02:10:43;17.05;;;6.00;;
55224;SDS011;41091;49.400;8.684;2023-02-08T02:13:22;16.63;;;6.28;;
55224;SDS011;41091;49.400;8.684;2023-02-08T02:15:53;10.90;;;6.95;;
55224;SDS011;41091;49.400;8.684;2023-02-08T02:18:21;9.55;;;6.22;;
55224;SDS011;41091;49.400;8.684;2023-02-08T02:37:37;7.28;;;5.75;;
55224;SDS011;41091;49.400;8.684;2023-02-08T02:43:30;11.30;;;6.13;;
55224;SDS011;41091;49.400;8.684;2023-02-08T02:46:07;8.60;;;5.77;;
55224;SDS011;41091;49.400;8.684;2023-02-08T02:48:47;10.38;;;5.60;;
55224;SDS011;41091;49.400;8.684;2023-02-08T02:54:07;9.18;;;6.32;;
55224;SDS011;41091;49.400;8.684;2023-02-08T02:56:37;7.25;;;5.47;;
55224;SDS011;41091;49.400;8.684;2023-02-08T02:59:07;7.68;;;5.90;;
55224;SDS011;41091;49.400;8.684;2023-02-08T03:01:34;9.40;;;5.72;;
55224;SDS011;41091;49.400;8.684;2023-02-08T03:03:59;8.10;;;5.95;;
55224;SDS011;41091;49.400;8.684;2023-02-08T03:15:04;8.40;;;6.03;;
55224;SDS011;41091;49.400;8.684;2023-02-08T03:20:38;8.13;;;5.18;;
55224;SDS011;41091;49.400;8.684;2023-02-08T03:23:12;10.02;;;5.93;;
55224;SDS011;41091;49.400;8.684;2023-02-08T03:28:26;17.98;;;6.80;;
55224;SDS011;41091;49.400;8.684;2023-02-08T03:31:02;9.90;;;6.43;;
55224;SDS011;41091;49.400;8.684;2023-02-08T03:36:24;9.80;;;6.57;;
55224;SDS011;41091;49.400;8.684;2023-02-08T03:38:55;11.30;;;6.95;;
55224;SDS011;41091;49.400;8.684;2023-02-08T03:41:23;17.65;;;7.60;;
55224;SDS011;41091;49.400;8.684;2023-02-08T03:43:54;11.90;;;6.72;;
55224;SDS011;41091;49.400;8.684;2023-02-08T03:46:24;15.13;;;7.07;;
55224;SDS011;41091;49.400;8.684;2023-02-08T03:48:59;9.40;;;6.40;;
55224;SDS011;41091;49.400;8.684;2023-02-08T03:51:27;12.30;;;6.18;;
55224;SDS011;41091;49.400;8.684;2023-02-08T03:53:57;11.88;;;7.07;;
55224;SDS011;41091;49.400;8.684;2023-02-08T03:56:27;13.15;;;6.55;;
55224;SDS011;41091;49.400;8.684;2023-02-08T03:59:23;11.13;;;7.35;;
55224;SDS011;41091;49.400;8.684;2023-02-08T04:02:00;8.88;;;6.10;;
55224;SDS011;41091;49.400;8.684;2023-02-08T04:04:29;10.20;;;7.03;;
55224;SDS011;41091;49.400;8.684;2023-02-08T04:06:57;13.70;;;6.80;;
55224;SDS011;41091;49.400;8.684;2023-02-08T04:09:22;11.15;;;6.40;;
55224;SDS011;41091;49.400;8.684;2023-02-08T04:11:52;11.80;;;6.82;;
55224;SDS011;41091;49.400;8.684;2023-02-08T04:14:18;14.48;;;7.80;;
55224;SDS011;41091;49.400;8.684;2023-02-08T04:16:48;12.00;;;7.68;;
55224;SDS011;41091;49.400;8.684;2023-02-08T04:19:13;10.70;;;6.40;;
55224;SDS011;41091;49.400;8.684;2023-02-08T04:21:38;16.65;;;7.57;;
55224;SDS011;41091;49.400;8.684;2023-02-08T04:24:06;13.23;;;6.68;;
55224;SDS011;41091;49.400;8.684;2023-02-08T04:26:31;15.27;;;7.03;;
55224;SDS011;41091;49.400;8.684;2023-02-08T04:28:57;10.57;;;6.30;;
55224;SDS011;41091;49.400;8.684;2023-02-08T04:31:24;17.17;;;7.03;;
55224;SDS011;41091;49.400;8.684;2023-02-08T04:33:50;10.63;;;6.65;;
55224;SDS011;41091;49.400;8.684;2023-02-08T04:36:18;9.55;;;6.53;;
55224;SDS011;41091;49.400;8.684;2023-02-08T04:38:43;12.68;;;6.25;;
55224;SDS011;41091;49.400;8.684;2023-02-08T04:41:09;10.63;;;6.30;;
55224;SDS011;41091;49.400;8.684;2023-02-08T04:43:35;8.90;;;6.97;;
55224;SDS011;41091;49.400;8.684;2023-02-08T04:46:00;9.27;;;6.30;;
55224;SDS011;41091;49.400;8.684;2023-02-08T04:48:28;8.32;;;5.13;;
55224;SDS011;41091;49.400;8.684;2023-02-08T04:50:54;15.30;;;6.05;;
55224;SDS011;41091;49.400;8.684;2023-02-08T04:53:20;12.57;;;5.85;;
55224;SDS011;41091;49.400;8.684;2023-02-08T04:55:46;8.73;;;5.25;;
55224;SDS011;41091;49.400;8.684;2023-02-08T04:58:11;12.98;;;5.85;;
55224;SDS011;41091;49.400;8.684;2023-02-08T05:00:37;12.80;;;6.38;;
55224;SDS011;41091;49.400;8.684;2023-02-08T05:03:04;7.30;;;5.50;;
55224;SDS011;41091;49.400;8.684;2023-02-08T05:05:32;8.70;;;5.53;;
55224;SDS011;41091;49.400;8.684;2023-02-08T05:07:57;7.78;;;5.55;;
55224;SDS011;41091;49.400;8.684;2023-02-08T05:10:23;8.70;;;5.85;;
55224;SDS011;41091;49.400;8.684;2023-02-08T05:12:49;8.85;;;5.35;;
55224;SDS011;41091;49.400;8.684;2023-02-08T05:15:14;8.48;;;5.88;;
55224;SDS011;41091;49.400;8.684;2023-02-08T05:17:42;8.50;;;6.07;;
55224;SDS011;41091;49.400;8.684;2023-02-08T05:20:10;8.15;;;5.80;;
55224;SDS011;41091;49.400;8.684;2023-02-08T05:22:36;9.82;;;5.05;;
55224;SDS011;41091;49.400;8.684;2023-02-08T05:25:04;11.82;;;6.18;;
55224;SDS011;41091;49.400;8.684;2023-02-08T05:27:30;7.68;;;5.60;;
55224;SDS011;41091;49.400;8.684;2023-02-08T05:29:55;8.05;;;5.03;;
55224;SDS011;41091;49.400;8.684;2023-02-08T05:32:21;8.25;;;5.57;;
55224;SDS011;41091;49.400;8.684;2023-02-08T05:34:48;11.57;;;6.28;;
55224;SDS011;41091;49.400;8.684;2023-02-08T05:37:14;10.63;;;5.72;;
55224;SDS011;41091;49.400;8.684;2023-02-08T05:39:39;10.48;;;5.68;;
55224;SDS011;41091;49.400;8.684;2023-02-08T05:42:05;11.65;;;6.40;;
55224;SDS011;41091;49.400;8.684;2023-02-08T05:44:30;10.30;;;6.53;;
55224;SDS011;41091;49.400;8.684;2023-02-08T05:46:58;8.15;;;5.45;;
55224;SDS011;41091;49.400;8.684;2023-02-08T05:49:23;13.38;;;6.03;;
55224;SDS011;41091;49.400;8.684;2023-02-08T05:51:49;9.52;;;6.20;;
55224;SDS011;41091;49.400;8.684;2023-02-08T05:54:15;11.05;;;6.10;;
55224;SDS011;41091;49.400;8.684;2023-02-08T05:56:43;15.18;;;6.10;;
55224;SDS011;41091;49.400;8.684;2023-02-08T05:59:08;13.45;;;6.45;;
55224;SDS011;41091;49.400;8.684;2023-02-08T06:01:34;13.18;;;6.38;;
55224;SDS011;41091;49.400;8.684;2023-02-08T06:04:00;8.35;;;6.45;;
55224;SDS011;41091;49.400;8.684;2023-02-08T06:06:28;8.90;;;5.90;;
55224;SDS011;41091;49.400;8.684;2023-02-08T06:08:55;13.23;;;7.60;;
55224;SDS011;41091;49.400;8.684;2023-02-08T06:11:23;10.30;;;6.72;;
55224;SDS011;41091;49.400;8.684;2023-02-08T06:13:48;12.68;;;7.03;;
55224;SDS011;41091;49.400;8.684;2023-02-08T06:16:14;11.30;;;7.15;;
55224;SDS011;41091;49.400;8.684;2023-02-08T06:18:42;15.30;;;6.80;;
55224;SDS011;41091;49.400;8.684;2023-02-08T06:21:07;18.58;;;7.28;;
55224;SDS011;41091;49.400;8.684;2023-02-08T06:23:33;14.48;;;7.00;;
55224;SDS011;41091;49.400;8.684;2023-02-08T06:26:01;6.05;;;5.35;;
55224;SDS011;41091;49.400;8.684;2023-02-08T06:28:26;13.10;;;6.82;;
55224;SDS011;41091;49.400;8.684;2023-02-08T06:30:52;12.38;;;5.78;;
55224;SDS011;41091;49.400;8.684;2023-02-08T06:33:17;14.63;;;6.70;;
55224;SDS011;41091;49.400;8.684;2023-02-08T06:35:47;9.82;;;6.47;;
55224;SDS011;41091;49.400;8.684;2023-02-08T06:38:14;10.32;;;7.57;;
55224;SDS011;41091;49.400;8.684;2023-02-08T06:40:45;10.50;;;6.68;;
55224;SDS011;41091;49.400;8.684;2023-02-08T06:43:10;11.20;;;6.43;;
55224;SDS011;41091;49.400;8.684;2023-02-08T06:45:42;10.95;;;6.78;;
55224;SDS011;41091;49.400;8.684;2023-02-08T06:48:08;13.02;;;7.40;;
55224;SDS011;41091;49.400;8.684;2023-02-08T06:50:36;11.07;;;7.15;;
55224;SDS011;41091;49.400;8.684;2023-02-08T06:53:02;11.00;;;8.55;;
55224;SDS011;41091;49.400;8.684;2023-02-08T06:55:27;16.88;;;7.22;;
55224;SDS011;41091;49.400;8.684;2023-02-08T06:57:55;15.48;;;7.13;;
55224;SDS011;41091;49.400;8.684;2023-02-08T07:00:21;13.50;;;7.40;;
55224;SDS011;41091;49.400;8.684;2023-02-08T07:02:46;15.23;;;8.73;;
55224;SDS011;41091;49.400;8.684;2023-02-08T07:05:12;17.27;;;8.35;;
55224;SDS011;41091;49.400;8.684;2023-02-08T07:07:37;13.63;;;6.70;;
55224;SDS011;41091;49.400;8.684;2023-02-08T07:10:05;18.65;;;7.90;;
55224;SDS011;41091;49.400;8.684;2023-02-08T07:12:33;13.60;;;7.05;;
55224;SDS011;41091;49.400;8.684;2023-02-08T07:15:00;14.52;;;6.82;;
55224;SDS011;41091;49.400;8.684;2023-02-08T07:17:25;11.75;;;7.63;;
55224;SDS011;41091;49.400;8.684;2023-02-08T07:19:50;14.60;;;6.90;;
55224;SDS011;41091;49.400;8.684;2023-02-08T07:22:16;9.55;;;7.03;;
55224;SDS011;41091;49.400;8.684;2023-02-08T07:24:41;12.35;;;7.47;;
55224;SDS011;41091;49.400;8.684;2023-02-08T07:27:07;9.25;;;6.38;;
55224;SDS011;41091;49.400;8.684;2023-02-08T07:29:36;15.83;;;7.23;;
55224;SDS011;41091;49.400;8.684;2023-02-08T07:32:02;12.45;;;7.07;;
55224;SDS011;41091;49.400;8.684;2023-02-08T07:34:28;15.50;;;7.90;;
55224;SDS011;41091;49.400;8.684;2023-02-08T07:36:57;11.70;;;7.20;;
55224;SDS011;41091;49.400;8.684;2023-02-08T07:39:22;14.27;;;7.68;;
55224;SDS011;41091;49.400;8.684;2023-02-08T07:41:50;13.90;;;7.00;;
55224;SDS011;41091;49.400;8.684;2023-02-08T07:44:16;17.75;;;7.80;;
55224;SDS011;41091;49.400;8.684;2023-02-08T07:46:46;14.23;;;7.50;;
55224;SDS011;41091;49.400;8.684;2023-02-08T07:49:13;14.07;;;9.00;;
55224;SDS011;41091;49.400;8.684;2023-02-08T07:51:39;14.00;;;7.40;;
55224;SDS011;41091;49.400;8.684;2023-02-08T07:54:04;11.80;;;7.85;;
55224;SDS011;41091;49.400;8.684;2023-02-08T07:56:29;19.77;;;7.10;;
55224;SDS011;41091;49.400;8.684;2023-02-08T07:58:55;18.75;;;6.95;;
55224;SDS011;41091;49.400;8.684;2023-02-08T08:01:22;18.75;;;8.18;;
55224;SDS011;41091;49.400;8.684;2023-02-08T08:03:51;10.68;;;7.53;;
55224;SDS011;41091;49.400;8.684;2023-02-08T08:06:19;22.35;;;8.05;;
55224;SDS011;41091;49.400;8.684;2023-02-08T08:08:46;16.25;;;7.22;;
55224;SDS011;41091;49.400;8.684;2023-02-08T08:11:15;12.40;;;7.18;;
55224;SDS011;41091;49.400;8.684;2023-02-08T08:13:41;10.10;;;7.57;;
55224;SDS011;41091;49.400;8.684;2023-02-08T08:16:06;18.70;;;7.90;;
55224;SDS011;41091;49.400;8.684;2023-02-08T08:18:32;15.50;;;7.25;;
55224;SDS011;41091;49.400;8.684;2023-02-08T08:20:57;11.80;;;6.22;;
55224;SDS011;41091;49.400;8.684;2023-02-08T08:23:22;23.63;;;8.00;;
55224;SDS011;41091;49.400;8.684;2023-02-08T08:25:52;12.00;;;7.15;;
55224;SDS011;41091;49.400;8.684;2023-02-08T08:28:18;12.85;;;6.85;;
55224;SDS011;41091;49.400;8.684;2023-02-08T08:30:46;12.88;;;7.43;;
55224;SDS011;41091;49.400;8.684;2023-02-08T08:33:12;15.10;;;7.30;;
55224;SDS011;41091;49.400;8.684;2023-02-08T08:35:40;14.77;;;7.60;;
55224;SDS011;41091;49.400;8.684;2023-02-08T08:38:11;12.15;;;7.80;;
55224;SDS011;41091;49.400;8.684;2023-02-08T08:40:36;14.98;;;8.15;;
55224;SDS011;41091;49.400;8.684;2023-02-08T08:43:06;12.57;;;7.00;;
55224;SDS011;41091;49.400;8.684;2023-02-08T08:45:31;12.82;;;7.03;;
55224;SDS011;41091;49.400;8.684;2023-02-08T08:48:00;13.82;;;7.80;;
55224;SDS011;41091;49.400;8.684;2023-02-08T08:50:25;13.23;;;7.10;;
55224;SDS011;41091;49.400;8.684;2023-02-08T08:52:51;21.63;;;8.07;;
55224;SDS011;41091;49.400;8.684;2023-02-08T08:55:16;35.90;;;7.97;;
55224;SDS011;41091;49.400;8.684;2023-02-08T08:57:44;8.95;;;5.80;;
55224;SDS011;41091;49.400;8.684;2023-02-08T09:00:10;10.07;;;6.65;;
55224;SDS011;41091;49.400;8.684;2023-02-08T09:02:35;13.93;;;7.53;;
55224;SDS011;41091;49.400;8.684;2023-02-08T09:05:01;11.27;;;7.40;;
55224;SDS011;41091;49.400;8.684;2023-02-08T09:07:28;8.77;;;6.00;;
55224;SDS011;41091;49.400;8.684;2023-02-08T09:09:55;9.98;;;6.45;;
55224;SDS011;41091;49.400;8.684;2023-02-08T09:12:21;12.98;;;6.80;;
55224;SDS011;41091;49.400;8.684;2023-02-08T09:14:47;12.25;;;8.10;;
55224;SDS011;41091;49.400;8.684;2023-02-08T09:17:12;11.73;;;6.18;;
55224;SDS011;41091;49.400;8.684;2023-02-08T09:19:37;11.82;;;6.72;;
55224;SDS011;41091;49.400;8.684;2023-02-08T09:22:04;10.55;;;5.70;;
55224;SDS011;41091;49.400;8.684;2023-02-08T09:24:30;11.55;;;5.93;;
55224;SDS011;41091;49.400;8.684;2023-02-08T09:26:56;13.15;;;6.18;;
55224;SDS011;41091;49.400;8.684;2023-02-08T09:29:21;12.98;;;5.97;;
55224;SDS011;41091;49.400;8.684;2023-02-08T09:31:49;11.93;;;6.18;;
55224;SDS011;41091;49.400;8.684;2023-02-08T09:34:17;9.75;;;7.43;;
55224;SDS011;41091;49.400;8.684;2023-02-08T09:36:42;10.13;;;6.78;;
55224;SDS011;41091;49.400;8.684;2023-02-08T09:39:17;16.88;;;6.78;;
55224;SDS011;41091;49.400;8.684;2023-02-08T09:47:23;9.90;;;6.10;;
55224;SDS011;41091;49.400;8.684;2023-02-08T09:52:21;9.77;;;5.80;;
55224;SDS011;41091;49.400;8.684;2023-02-08T09:55:00;11.95;;;6.80;;
55224;SDS011;41091;49.400;8.684;2023-02-08T09:57:30;11.65;;;6.63;;
55224;SDS011;41091;49.400;8.684;2023-02-08T10:00:01;10.68;;;6.60;;
55224;SDS011;41091;49.400;8.684;2023-02-08T10:02:32;8.50;;;5.93;;
55224;SDS011;41091;49.400;8.684;2023-02-08T10:05:02;8.68;;;6.22;;
55224;SDS011;41091;49.400;8.684;2023-02-08T10:07:30;9.25;;;5.88;;
55224;SDS011;41091;49.400;8.684;2023-02-08T10:10:03;11.80;;;6.07;;
55224;SDS011;41091;49.400;8.684;2023-02-08T10:25:54;11.30;;;6.60;;
55224;SDS011;41091;49.400;8.684;2023-02-08T10:34:42;9.23;;;5.57;;
55224;SDS011;41091;49.400;8.684;2023-02-08T10:39:24;8.93;;;5.68;;
55224;SDS011;41091;49.400;8.684;2023-02-08T10:41:52;9.85;;;6.05;;
55224;SDS011;41091;49.400;8.684;2023-02-08T10:44:20;7.40;;;5.80;;
55224;SDS011;41091;49.400;8.684;2023-02-08T10:47:06;9.65;;;5.57;;
55224;SDS011;41091;49.400;8.684;2023-02-08T10:49:37;6.40;;;4.97;;
55224;SDS011;41091;49.400;8.684;2023-02-08T10:52:06;11.85;;;6.15;;
55224;SDS011;41091;49.400;8.684;2023-02-08T10:54:34;6.13;;;5.07;;
55224;SDS011;41091;49.400;8.684;2023-02-08T10:57:00;7.18;;;5.53;;
55224;SDS011;41091;49.400;8.684;2023-02-08T10:59:33;6.25;;;5.32;;
55224;SDS011;41091;49.400;8.684;2023-02-08T11:02:01;11.48;;;5.13;;
55224;SDS011;41091;49.400;8.684;2023-02-08T11:04:26;8.38;;;5.43;;
55224;SDS011;41091;49.400;8.684;2023-02-08T11:06:52;5.63;;;4.82;;
55224;SDS011;41091;49.400;8.684;2023-02-08T11:11:51;8.68;;;5.72;;
55224;SDS011;41091;49.400;8.684;2023-02-08T11:14:27;7.60;;;4.93;;
55224;SDS011;41091;49.400;8.684;2023-02-08T11:16:56;6.70;;;4.57;;
55224;SDS011;41091;49.400;8.684;2023-02-08T11:19:55;6.13;;;4.47;;
55224;SDS011;41091;49.400;8.684;2023-02-08T11:22:14;6.05;;;4.35;;
55224;SDS011;41091;49.400;8.684;2023-02-08T11:24:43;6.18;;;4.85;;
55224;SDS011;41091;49.400;8.684;2023-02-08T11:27:36;8.30;;;5.05;;
55224;SDS011;41091;49.400;8.684;2023-02-08T11:32:39;7.40;;;5.20;;
55224;SDS011;41091;49.400;8.684;2023-02-08T11:37:49;7.32;;;5.18;;
55224;SDS011;41091;49.400;8.684;2023-02-08T11:42:55;7.43;;;4.75;;
55224;SDS011;41091;49.400;8.684;2023-02-08T11:45:22;9.05;;;4.97;;
55224;SDS011;41091;49.400;8.684;2023-02-08T11:47:49;6.13;;;5.13;;
55224;SDS011;41091;49.400;8.684;2023-02-08T11:50:49;14.25;;;5.40;;
55224;SDS011;41091;49.400;8.684;2023-02-08T11:53:19;6.68;;;4.55;;
55224;SDS011;41091;49.400;8.684;2023-02-08T11:58:38;8.60;;;5.32;;
55224;SDS011;41091;49.400;8.684;2023-02-08T12:01:05;5.63;;;5.00;;
55224;SDS011;41091;49.400;8.684;2023-02-08T12:03:41;7.28;;;4.88;;
55224;SDS011;41091;49.400;8.684;2023-02-08T12:17:19;7.93;;;4.20;;
55224;SDS011;41091;49.400;8.684;2023-02-08T12:22:36;4.22;;;3.85;;
55224;SDS011;41091;49.400;8.684;2023-02-08T12:57:29;4.65;;;4.20;;
55224;SDS011;41091;49.400;8.684;2023-02-08T13:02:26;5.25;;;3.95;;
55224;SDS011;41091;49.400;8.684;2023-02-08T13:04:59;5.30;;;3.78;;
55224;SDS011;41091;49.400;8.684;2023-02-08T13:07:32;4.00;;;3.70;;
55224;SDS011;41091;49.400;8.684;2023-02-08T13:12:43;4.35;;;3.95;;
55224;SDS011;41091;49.400;8.684;2023-02-08T13:15:17;4.28;;;3.55;;
55224;SDS011;41091;49.400;8.684;2023-02-08T13:17:50;5.32;;;3.92;;
55224;SDS011;41091;49.400;8.684;2023-02-08T13:22:56;9.15;;;4.53;;
55224;SDS011;41091;49.400;8.684;2023-02-08T13:25:29;4.68;;;4.10;;
55224;SDS011;41091;49.400;8.684;2023-02-08T13:28:03;6.60;;;4.57;;
55224;SDS011;41091;49.400;8.684;2023-02-08T13:30:31;5.72;;;4.65;;
55224;SDS011;41091;49.400;8.684;2023-02-08T13:32:57;4.80;;;4.25;;
55224;SDS011;41091;49.400;8.684;2023-02-08T13:35:32;5.32;;;4.50;;
55224;SDS011;41091;49.400;8.684;2023-02-08T13:38:04;6.85;;;3.60;;
55224;SDS011;41091;49.400;8.684;2023-02-08T13:40:34;4.63;;;4.22;;
55224;SDS011;41091;49.400;8.684;2023-02-08T13:43:04;8.75;;;4.53;;
55224;SDS011;41091;49.400;8.684;2023-02-08T13:48:06;5.15;;;3.97;;
55224;SDS011;41091;49.400;8.684;2023-02-08T13:56:09;6.38;;;4.40;;
55224;SDS011;41091;49.400;8.684;2023-02-08T14:01:25;5.03;;;4.20;;
55224;SDS011;41091;49.400;8.684;2023-02-08T14:04:35;5.68;;;4.10;;
55224;SDS011;41091;49.400;8.684;2023-02-08T14:07:01;4.20;;;3.80;;
55224;SDS011;41091;49.400;8.684;2023-02-08T14:09:40;4.88;;;3.92;;
55224;SDS011;41091;49.400;8.684;2023-02-08T14:17:40;5.70;;;3.83;;
55224;SDS011;41091;49.400;8.684;2023-02-08T14:20:16;4.63;;;3.45;;
55224;SDS011;41091;49.400;8.684;2023-02-08T14:22:54;7.50;;;3.72;;
55224;SDS011;41091;49.400;8.684;2023-02-08T14:25:22;6.53;;;4.88;;
55224;SDS011;41091;49.400;8.684;2023-02-08T14:30:26;4.85;;;4.07;;
55224;SDS011;41091;49.400;8.684;2023-02-08T14:35:29;6.75;;;4.10;;
55224;SDS011;41091;49.400;8.684;2023-02-08T14:40:58;10.65;;;5.03;;
55224;SDS011;41091;49.400;8.684;2023-02-08T14:45:52;4.40;;;3.70;;
55224;SDS011;41091;49.400;8.684;2023-02-08T14:48:31;9.77;;;4.03;;
55224;SDS011;41091;49.400;8.684;2023-02-08T14:54:14;7.88;;;4.43;;
55224;SDS011;41091;49.400;8.684;2023-02-08T14:56:44;8.20;;;4.50;;
55224;SDS011;41091;49.400;8.684;2023-02-08T14:59:22;6.28;;;4.10;;
55224;SDS011;41091;49.400;8.684;2023-02-08T15:02:02;4.40;;;3.50;;
55224;SDS011;41091;49.400;8.684;2023-02-08T15:04:44;3.90;;;3.17;;
55224;SDS011;41091;49.400;8.684;2023-02-08T15:09:44;6.18;;;3.97;;
55224;SDS011;41091;49.400;8.684;2023-02-08T15:12:14;5.95;;;3.40;;
55224;SDS011;41091;49.400;8.684;2023-02-08T15:14:46;7.18;;;4.60;;
55224;SDS011;41091;49.400;8.684;2023-02-08T15:17:45;5.22;;;3.42;;
55224;SDS011;41091;49.400;8.684;2023-02-08T15:20:14;5.75;;;4.43;;
55224;SDS011;41091;49.400;8.684;2023-02-08T15:22:42;7.65;;;4.25;;
55224;SDS011;41091;49.400;8.684;2023-02-08T15:27:54;4.60;;;3.63;;
55224;SDS011;41091;49.400;8.684;2023-02-08T15:30:30;4.88;;;3.75;;
55224;SDS011;41091;49.400;8.684;2023-02-08T15:32:58;11.57;;;4.60;;
55224;SDS011;41091;49.400;8.684;2023-02-08T15:35:24;5.63;;;4.25;;
55224;SDS011;41091;49.400;8.684;2023-02-08T15:37:51;7.68;;;4.70;;
55224;SDS011;41091;49.400;8.684;2023-02-08T15:40:27;9.32;;;5.18;;
55224;SDS011;41091;49.400;8.684;2023-02-08T15:42:54;5.90;;;4.13;;
55224;SDS011;41091;49.400;8.684;2023-02-08T15:45:24;4.85;;;4.35;;
55224;SDS011;41091;49.400;8.684;2023-02-08T15:47:51;5.55;;;4.22;;
55224;SDS011;41091;49.400;8.684;2023-02-08T15:50:19;8.38;;;4.50;;
55224;SDS011;41091;49.400;8.684;2023-02-08T15:52:45;12.88;;;4.85;;
55224;SDS011;41091;49.400;8.684;2023-02-08T15:55:16;7.30;;;5.53;;
55224;SDS011;41091;49.400;8.684;2023-02-08T15:57:43;8.60;;;6.05;;
55224;SDS011;41091;49.400;8.684;2023-02-08T16:02:38;10.57;;;5.50;;
55224;SDS011;41091;49.400;8.684;2023-02-08T16:05:09;9.85;;;5.63;;
55224;SDS011;41091;49.400;8.684;2023-02-08T16:07:43;8.00;;;5.88;;
55224;SDS011;41091;49.400;8.684;2023-02-08T16:10:19;8.50;;;5.63;;
55224;SDS011;41091;49.400;8.684;2023-02-08T16:18:00;7.72;;;6.53;;
55224;SDS011;41091;49.400;8.684;2023-02-08T16:20:27;11.10;;;5.95;;
55224;SDS011;41091;49.400;8.684;2023-02-08T16:22:56;9.68;;;6.40;;
55224;SDS011;41091;49.400;8.684;2023-02-08T16:25:22;11.63;;;6.97;;
55224;SDS011;41091;49.400;8.684;2023-02-08T16:28:21;8.30;;;6.32;;
55224;SDS011;41091;49.400;8.684;2023-02-08T16:30:50;10.75;;;6.15;;
55224;SDS011;41091;49.400;8.684;2023-02-08T16:33:16;9.38;;;6.72;;
55224;SDS011;41091;49.400;8.684;2023-02-08T16:35:41;10.25;;;6.70;;
55224;SDS011;41091;49.400;8.684;2023-02-08T16:38:09;7.97;;;6.55;;
55224;SDS011;41091;49.400;8.684;2023-02-08T16:40:45;11.63;;;6.72;;
55224;SDS011;41091;49.400;8.684;2023-02-08T16:45:43;12.50;;;6.88;;
55224;SDS011;41091;49.400;8.684;2023-02-08T16:48:31;16.95;;;7.85;;
55224;SDS011;41091;49.400;8.684;2023-02-08T16:51:02;12.90;;;7.95;;
55224;SDS011;41091;49.400;8.684;2023-02-08T16:53:35;12.05;;;8.05;;
55224;SDS011;41091;49.400;8.684;2023-02-08T16:56:02;18.40;;;8.95;;
55224;SDS011;41091;49.400;8.684;2023-02-08T16:58:28;17.02;;;7.90;;
55224;SDS011;41091;49.400;8.684;2023-02-08T17:00:55;14.23;;;8.35;;
55224;SDS011;41091;49.400;8.684;2023-02-08T17:03:24;14.57;;;9.30;;
55224;SDS011;41091;49.400;8.684;2023-02-08T17:05:49;15.32;;;8.82;;
55224;SDS011;41091;49.400;8.684;2023-02-08T17:08:15;16.38;;;9.75;;
55224;SDS011;41091;49.400;8.684;2023-02-08T17:10:44;16.73;;;8.43;;
55224;SDS011;41091;49.400;8.684;2023-02-08T17:13:16;16.73;;;8.75;;
55224;SDS011;41091;49.400;8.684;2023-02-08T17:15:41;15.95;;;9.05;;
55224;SDS011;41091;49.400;8.684;2023-02-08T17:18:07;16.95;;;10.80;;
55224;SDS011;41091;49.400;8.684;2023-02-08T17:20:33;19.55;;;9.15;;
55224;SDS011;41091;49.400;8.684;2023-02-08T17:23:00;18.33;;;10.52;;
55224;SDS011;41091;49.400;8.684;2023-02-08T17:25:26;22.27;;;10.88;;
55224;SDS011;41091;49.400;8.684;2023-02-08T17:27:53;13.02;;;8.52;;
55224;SDS011;41091;49.400;8.684;2023-02-08T17:30:21;18.92;;;9.32;;
55224;SDS011;41091;49.400;8.684;2023-02-08T17:32:49;15.60;;;9.15;;
55224;SDS011;41091;49.400;8.684;2023-02-08T17:35:15;15.82;;;8.38;;
55224;SDS011;41091;49.400;8.684;2023-02-08T17:37:43;13.52;;;7.93;;
55224;SDS011;41091;49.400;8.684;2023-02-08T17:40:10;14.48;;;8.73;;
55224;SDS011;41091;49.400;8.684;2023-02-08T17:42:36;17.40;;;9.27;;
55224;SDS011;41091;49.400;8.684;2023-02-08T17:45:01;17.88;;;10.20;;
55224;SDS011;41091;49.400;8.684;2023-02-08T17:47:27;15.88;;;8.57;;
55224;SDS011;41091;49.400;8.684;2023-02-08T17:49:55;17.92;;;10.18;;
55224;SDS011;41091;49.400;8.684;2023-02-08T17:52:21;19.23;;;11.02;;